首页
METAR-TAF:

METAR-TAF

机场 :

拉纳卡国际机场

拉纳卡, 塞浦路斯

纬度: 34-53N, 经度: 033-38E, 海拔: 2米

当前天气观测

该预报发布于28分钟前的23:00 UTC
风速4节,风向北转西北
温度 13°C
湿度 88%
气压 1021 hPa
能见度10公里或以上
多云层高于2700英尺

METAR: LCLK 262300Z 34004KT 9999 BKN027 13/11 Q1021 NOSIG

时间: 01:28 (23:28 UTC)

预报

该预报发布于5小时和58分钟前的17:30 UTC
预报有效从26日的 18点(UTC)到 27日的 18点(UTC)
风速10节,风向西南
能见度10公里或以上
少量云层高于2000英尺
成为
从 26日的 18点(UTC)到 26日的 20点(UTC)
风速6节,风向西北
几率 30%
从 26日的 22点(UTC)到 27日的 05点(UTC)
能見度: 5000
多云层高于700英尺
轻雾
成为
从 27日的 07点(UTC)到 27日的 10点(UTC)
风速12节,风向南转西南

TAF: LCLK 261730Z 2618/2718 22010KT 9999 FEW020 BECMG 2618/2620 32006KT PROB30 2622/2705 5000 BR BKN007 BECMG 2707/2710 20012KT

超过4000个机场的气象观测和天气预报(METAR&TAF报告)。

可查询的气象台以黄色和红色小点在地图上表示。

将鼠标移到小点上方,可查看气象台名称。

然后点击查看天气观测和预报。

如需切换地图:点击带黑十字的绿色按钮放大地图;点击带横线的绿色按钮缩小地图;或者点击绿色箭头查看邻近地区的地图。


METAR-TAF: